Time;durP1;ratioP1;P1;durP2;ratioP2;P2;SDS_P1;SDS_P2;PMS_P1;PMS_P2;Temp;Humidity;BMP_temperature;BMP_pressure;BME280_temperature;BME280_humidity;BME280_pressure;Samples;Min_cycle;Max_cycle;Signal;HPM_P1;HPM_P2
2022/08/17 00:01:06;627689.00;2.09;1082.05;29310.00;0.10;51.39;;;;;24.30;1.00;;;;;;2264214;61;1624;-87
2022/08/17 00:03:37;659751.00;2.20;1137.51;15341.00;0.05;27.20;;;;;24.20;1.00;;;;;;2263996;61;1590;-84
2022/08/17 00:06:10;342960.00;1.14;591.76;7781.00;0.03;14.10;;;;;24.30;1.00;;;;;;2263852;61;1637;-85
2022/08/17 00:08:41;91014.00;0.30;158.06;0.00;0.00;0.62;;;;;24.30;1.00;;;;;;2263981;61;1137;-85
2022/08/17 00:11:10;179815.00;0.60;311.17;0.00;0.00;0.62;;;;;24.10;1.00;;;;;;2264584;61;1154;-84
2022/08/17 00:13:40;277209.00;0.92;478.74;0.00;0.00;0.62;;;;;24.30;1.00;;;;;;2264803;61;1585;-84
2022/08/17 00:16:10;342975.00;1.14;591.79;0.00;0.00;0.62;;;;;24.60;1.00;;;;;;2264549;61;2366;-84
2022/08/17 00:18:39;229853.00;0.77;397.30;0.00;0.00;0.62;;;;;24.80;1.00;;;;;;2264611;61;1410;-84
2022/08/17 00:21:09;141284.00;0.47;244.78;0.00;0.00;0.62;;;;;24.60;1.00;;;;;;2264869;61;1188;-88
2022/08/17 00:23:36;67412.00;0.22;117.29;0.00;0.00;0.62;;;;;24.40;1.00;;;;;;2264096;61;1052;-84
2022/08/17 00:26:03;0.00;0.00;0.62;0.00;0.00;0.62;;;;;24.50;1.00;;;;;;2264559;61;1344;-85
2022/08/17 00:28:30;465346.00;1.55;802.18;87179.00;0.29;151.44;;;;;24.50;1.00;;;;;;2264428;61;1199;-85
2022/08/17 00:30:58;220739.00;0.74;381.62;11768.00;0.04;21.01;;;;;24.50;1.00;;;;;;2264326;61;1218;-86
2022/08/17 00:33:28;163015.00;0.54;282.23;0.00;0.00;0.62;;;;;24.30;1.00;;;;;;2264590;61;1113;-84
2022/08/17 00:35:57;197265.00;0.66;341.22;0.00;0.00;0.62;;;;;24.10;1.00;;;;;;2264853;61;1456;-85
2022/08/17 00:38:26;178993.00;0.60;309.76;0.00;0.00;0.62;;;;;24.20;1.00;;;;;;2264747;61;2013;-85
2022/08/17 00:40:56;16974.00;0.06;30.03;0.00;0.00;0.62;;;;;24.10;1.00;;;;;;2264765;61;1085;-85
2022/08/17 00:43:29;314968.00;1.05;543.65;87734.00;0.29;152.39;;;;;24.30;1.00;;;;;;2264393;61;1052;-84
2022/08/17 00:45:56;0.00;0.00;0.62;0.00;0.00;0.62;;;;;24.30;1.00;;;;;;2263806;61;1396;-83
2022/08/17 00:48:24;223160.00;0.74;385.78;54883.00;0.18;95.63;;;;;24.30;1.00;;;;;;2263737;61;1124;-85
2022/08/17 00:50:59;58231.00;0.19;101.42;0.00;0.00;0.62;;;;;24.40;1.00;;;;;;2263805;61;1176;-85
2022/08/17 00:53:29;212562.00;0.71;367.54;42786.00;0.14;74.71;;;;;24.40;1.00;;;;;;2264128;61;1171;-85
2022/08/17 00:55:56;58713.00;0.20;102.25;0.00;0.00;0.62;;;;;24.20;1.00;;;;;;2263923;61;1308;-84
2022/08/17 00:58:24;196707.00;0.66;340.26;48205.00;0.16;84.08;;;;;24.30;1.00;;;;;;2263686;61;1935;-85
2022/08/17 01:00:52;169970.00;0.57;294.21;0.00;0.00;0.62;;;;;24.40;1.00;;;;;;2264028;61;1110;-85
2022/08/17 01:03:24;213594.00;0.71;369.32;0.00;0.00;0.62;;;;;24.10;1.00;;;;;;2263888;61;1484;-85
2022/08/17 01:05:56;162315.00;0.54;281.03;0.00;0.00;0.62;;;;;23.90;1.00;;;;;;2263960;61;1696;-84
2022/08/17 01:08:28;174601.00;0.58;302.19;23568.00;0.08;41.45;;;;;24.10;1.00;;;;;;2264008;61;1120;-84
2022/08/17 01:10:57;76420.00;0.25;132.85;0.00;0.00;0.62;;;;;24.30;1.00;;;;;;2264021;61;1341;-85
2022/08/17 01:13:26;0.00;0.00;0.62;0.00;0.00;0.62;;;;;24.10;1.00;;;;;;2264079;61;1184;-85
2022/08/17 01:15:59;0.00;0.00;0.62;0.00;0.00;0.62;;;;;23.80;1.00;;;;;;2263718;61;1337;-85
2022/08/17 01:18:27;0.00;0.00;0.62;0.00;0.00;0.62;;;;;23.40;1.00;;;;;;2264227;61;1989;-84
2022/08/17 01:20:56;0.00;0.00;0.62;0.00;0.00;0.62;;;;;23.60;1.00;;;;;;2263809;61;1279;-83
2022/08/17 01:23:26;58726.00;0.20;102.27;0.00;0.00;0.62;;;;;23.60;1.00;;;;;;2263846;61;1110;-85
2022/08/17 01:25:57;0.00;0.00;0.62;0.00;0.00;0.62;;;;;23.60;1.00;;;;;;2264261;61;1310;-85
2022/08/17 01:28:26;0.00;0.00;0.62;0.00;0.00;0.62;;;;;23.70;1.00;;;;;;2263907;61;1152;-84
2022/08/17 01:30:55;28970.00;0.10;50.80;0.00;0.00;0.62;;;;;23.80;1.00;;;;;;2263967;61;1240;-85
2022/08/17 01:33:23;0.00;0.00;0.62;0.00;0.00;0.62;;;;;23.80;1.00;;;;;;2264028;61;1069;-87
2022/08/17 01:35:49;140931.00;0.47;244.18;0.00;0.00;0.62;;;;;23.70;1.00;;;;;;2264253;61;1301;-85
2022/08/17 01:38:17;146166.00;0.49;253.20;30400.00;0.10;53.28;;;;;23.80;1.00;;;;;;2264414;61;1924;-85
2022/08/17 01:40:52;0.00;0.00;0.62;0.00;0.00;0.62;;;;;23.50;1.00;;;;;;2263958;61;1128;-84
2022/08/17 01:43:24;164705.00;0.55;285.15;0.00;0.00;0.62;;;;;23.60;1.00;;;;;;2264032;61;2331;-84
2022/08/17 01:45:55;189255.00;0.63;327.43;75079.00;0.25;130.54;;;;;23.80;1.00;;;;;;2263743;61;1473;-84
2022/08/17 01:48:23;142256.00;0.47;246.46;0.00;0.00;0.62;;;;;24.00;1.00;;;;;;2263578;61;1088;-84
2022/08/17 01:50:52;149653.00;0.50;259.21;0.00;0.00;0.62;;;;;24.00;1.00;;;;;;2263795;61;1172;-85
2022/08/17 01:53:24;32854.00;0.11;57.52;0.00;0.00;0.62;;;;;23.80;1.00;;;;;;2263444;61;1156;-84
2022/08/17 01:55:56;301699.00;1.01;520.84;77810.00;0.26;135.25;;;;;23.90;1.00;;;;;;2263367;61;1647;-85
2022/08/17 01:58:24;232114.00;0.77;401.19;26477.00;0.09;46.48;;;;;24.00;1.00;;;;;;2263865;61;1927;-86
2022/08/17 02:00:53;0.00;0.00;0.62;0.00;0.00;0.62;;;;;23.90;1.00;;;;;;2263639;61;1129;-85
2022/08/17 02:03:21;79151.00;0.26;137.57;0.00;0.00;0.62;;;;;23.80;1.00;;;;;;2263626;61;1128;-85
2022/08/17 02:05:49;0.00;0.00;0.62;0.00;0.00;0.62;;;;;23.60;1.00;;;;;;2263171;61;1254;-85
2022/08/17 02:08:19;0.00;0.00;0.62;0.00;0.00;0.62;;;;;23.60;1.00;;;;;;2263712;61;1242;-85
2022/08/17 02:10:46;0.00;0.00;0.62;0.00;0.00;0.62;;;;;23.60;1.00;;;;;;2263842;61;1109;-85
2022/08/17 02:13:15;25136.00;0.08;44.16;0.00;0.00;0.62;;;;;23.50;1.00;;;;;;2263709;61;1653;-85
2022/08/17 02:15:41;0.00;0.00;0.62;0.00;0.00;0.62;;;;;23.40;1.00;;;;;;2263667;61;1360;-84
2022/08/17 02:18:10;46342.00;0.15;80.86;0.00;0.00;0.62;;;;;23.50;1.00;;;;;;2263536;61;1996;-85
2022/08/17 02:20:37;53225.00;0.18;92.76;0.00;0.00;0.62;;;;;23.40;1.00;;;;;;2263788;61;1049;-84
2022/08/17 02:23:08;57083.00;0.19;99.43;0.00;0.00;0.62;;;;;23.40;1.00;;;;;;2264496;61;1150;-85
2022/08/17 02:25:36;215856.00;0.72;373.21;0.00;0.00;0.62;;;;;23.40;1.00;;;;;;2264452;61;1605;-85
2022/08/17 02:28:04;162255.00;0.54;280.92;0.00;0.00;0.62;;;;;23.30;1.00;;;;;;2263743;61;2295;-85
2022/08/17 02:30:33;207500.00;0.69;358.83;89513.00;0.30;155.47;;;;;23.10;1.00;;;;;;2263520;61;1716;-85
2022/08/17 02:33:00;0.00;0.00;0.62;0.00;0.00;0.62;;;;;23.00;1.00;;;;;;2263307;61;1186;-84
2022/08/17 02:35:27;95962.00;0.32;166.60;0.00;0.00;0.62;;;;;22.70;1.00;;;;;;2263618;61;1393;-85
2022/08/17 02:37:54;231629.00;0.77;400.35;48956.00;0.16;85.38;;;;;22.40;1.00;;;;;;2263434;61;2004;-86
2022/08/17 02:40:22;18688.00;0.06;33.00;0.00;0.00;0.62;;;;;22.20;1.00;;;;;;2263709;61;1137;-85
2022/08/17 02:42:49;68676.00;0.23;119.47;0.00;0.00;0.62;;;;;22.20;1.00;;;;;;2263735;61;1096;-86
2022/08/17 02:45:19;77227.00;0.26;134.25;0.00;0.00;0.62;;;;;22.40;1.00;;;;;;2264239;61;1284;-86
2022/08/17 02:47:48;186088.00;0.62;321.97;0.00;0.00;0.62;;;;;22.60;1.00;;;;;;2264427;61;1078;-86
2022/08/17 02:50:18;26696.00;0.09;46.86;0.00;0.00;0.62;;;;;22.60;1.00;;;;;;2264436;61;1171;-85
2022/08/17 02:52:47;372794.00;1.24;643.04;46183.00;0.15;80.58;;;;;22.20;1.00;;;;;;2263786;61;1112;-85
2022/08/17 02:55:16;0.00;0.00;0.62;0.00;0.00;0.62;;;;;22.10;1.00;;;;;;2263617;61;1332;-85
2022/08/17 02:57:44;73123.00;0.24;127.16;0.00;0.00;0.62;;;;;22.10;1.00;;;;;;2263635;61;2014;-85
2022/08/17 03:00:15;0.00;0.00;0.62;0.00;0.00;0.62;;;;;22.20;1.00;;;;;;2263566;61;1136;-85
2022/08/17 03:02:43;0.00;0.00;0.62;0.00;0.00;0.62;;;;;22.20;1.00;;;;;;2263638;61;1112;-84
2022/08/17 03:05:14;0.00;0.00;0.62;0.00;0.00;0.62;;;;;22.00;1.00;;;;;;2263309;61;1381;-85
2022/08/17 03:07:41;29489.00;0.10;51.70;0.00;0.00;0.62;;;;;22.20;1.00;;;;;;2263737;61;1118;-85
2022/08/17 03:10:10;103857.00;0.35;180.23;0.00;0.00;0.62;;;;;22.00;1.00;;;;;;2263743;61;1049;-83
2022/08/17 03:12:42;197097.00;0.66;340.93;23790.00;0.08;41.83;;;;;21.80;1.00;;;;;;2264232;61;1137;-85
2022/08/17 03:15:11;0.00;0.00;0.62;0.00;0.00;0.62;;;;;21.60;1.00;;;;;;2264347;61;1419;-85
2022/08/17 03:17:38;0.00;0.00;0.62;0.00;0.00;0.62;;;;;21.60;1.00;;;;;;2264286;61;1928;-85
2022/08/17 03:20:06;7340.00;0.02;13.34;0.00;0.00;0.62;;;;;21.70;1.00;;;;;;2264303;61;1079;-87
2022/08/17 03:22:39;56782.00;0.19;98.91;0.00;0.00;0.62;;;;;21.90;1.00;;;;;;2264335;61;1103;-85
2022/08/17 03:25:08;0.00;0.00;0.62;0.00;0.00;0.62;;;;;22.30;1.00;;;;;;2264314;61;1469;-85
2022/08/17 03:27:35;181999.00;0.61;314.93;0.00;0.00;0.62;;;;;22.70;1.00;;;;;;2263966;61;1048;-85
2022/08/17 03:30:02;194353.00;0.65;336.20;11199.00;0.04;20.03;;;;;22.70;1.00;;;;;;2263675;61;1155;-85
2022/08/17 03:32:29;102681.00;0.34;178.20;0.00;0.00;0.62;;;;;22.90;1.00;;;;;;2263451;61;1253;-84
2022/08/17 03:35:00;79719.00;0.27;138.55;0.00;0.00;0.62;;;;;23.10;1.00;;;;;;2263817;61;1194;-84
2022/08/17 03:37:27;568933.00;1.90;980.61;100757.00;0.34;174.88;;;;;23.30;1.00;;;;;;2263499;61;1923;-85
2022/08/17 03:39:55;184006.00;0.61;318.39;0.00;0.00;0.62;;;;;23.40;1.00;;;;;;2263762;61;1128;-85
2022/08/17 03:42:25;220594.00;0.74;381.37;41807.00;0.14;73.01;;;;;22.80;1.00;;;;;;2263582;61;1062;-85
2022/08/17 03:44:54;155849.00;0.52;269.89;0.00;0.00;0.62;;;;;22.40;1.00;;;;;;2263581;61;1125;-85
2022/08/17 03:58:24;108322.00;0.36;187.93;38752.00;0.13;67.73;;;;;21.90;1.00;;;;;;2263708;61;1916;-85
2022/08/17 04:00:52;8451.00;0.03;15.27;0.00;0.00;0.62;;;;;21.80;1.00;;;;;;2263979;61;1169;-85
2022/08/17 04:03:18;0.00;0.00;0.62;0.00;0.00;0.62;;;;;22.10;1.00;;;;;;2263459;61;1102;-85
2022/08/17 04:05:45;0.00;0.00;0.62;0.00;0.00;0.62;;;;;22.10;1.00;;;;;;2263735;61;1312;-85
2022/08/17 04:08:12;0.00;0.00;0.62;0.00;0.00;0.62;;;;;22.20;1.00;;;;;;2264004;61;1168;-86
2022/08/17 04:10:41;155242.00;0.52;268.84;0.00;0.00;0.62;;;;;22.30;1.00;;;;;;2264231;61;1144;-85
2022/08/17 04:13:09;438304.00;1.46;755.67;55695.00;0.19;97.03;;;;;22.20;1.00;;;;;;2264182;61;1662;-85
2022/08/17 04:15:36;89738.00;0.30;155.86;0.00;0.00;0.62;;;;;22.30;1.00;;;;;;2263713;61;1407;-85
2022/08/17 04:18:03;26771.00;0.09;46.99;0.00;0.00;0.62;;;;;22.20;1.00;;;;;;2263752;61;2000;-85
2022/08/17 04:20:30;177775.00;0.59;307.66;0.00;0.00;0.62;;;;;22.60;1.00;;;;;;2263592;61;1141;-84
2022/08/17 04:23:00;161443.00;0.54;279.53;0.00;0.00;0.62;;;;;22.70;1.00;;;;;;2263417;61;1604;-85
2022/08/17 04:25:29;197507.00;0.66;341.63;0.00;0.00;0.62;;;;;23.00;1.00;;;;;;2263112;61;1371;-85
2022/08/17 04:27:59;234875.00;0.78;405.94;0.00;0.00;0.62;;;;;23.10;1.00;;;;;;2263314;61;1608;-85
2022/08/17 04:30:27;165140.00;0.55;285.89;0.00;0.00;0.62;;;;;23.10;1.00;;;;;;2263717;61;1194;-85
2022/08/17 04:32:57;95756.00;0.32;166.25;0.00;0.00;0.62;;;;;23.30;1.00;;;;;;2263981;61;1053;-85
2022/08/17 04:35:27;165511.00;0.55;286.53;0.00;0.00;0.62;;;;;23.20;1.00;;;;;;2263618;61;1297;-85
2022/08/17 04:37:54;147373.00;0.49;255.28;0.00;0.00;0.62;;;;;23.40;1.00;;;;;;2263607;61;2018;-85
2022/08/17 04:43:12;104846.00;0.35;181.94;0.00;0.00;0.62;;;;;23.60;1.00;;;;;;2264080;61;658;-87
2022/08/17 04:45:40;0.00;0.00;0.62;0.00;0.00;0.62;;;;;23.60;1.00;;;;;;2263698;61;1373;-85
2022/08/17 04:48:07;0.00;0.00;0.62;0.00;0.00;0.62;;;;;23.40;1.00;;;;;;2263943;61;1176;-86
2022/08/17 04:50:36;234066.00;0.78;404.54;101351.00;0.34;175.90;;;;;23.40;1.00;;;;;;2264171;61;1097;-86
2022/08/17 04:53:03;20768.00;0.07;36.60;0.00;0.00;0.62;;;;;23.40;1.00;;;;;;2263679;61;1056;-85
2022/08/17 04:55:31;160827.00;0.54;278.46;0.00;0.00;0.62;;;;;23.30;1.00;;;;;;2263495;61;1259;-85
2022/08/17 04:57:57;80965.00;0.27;140.70;0.00;0.00;0.62;;;;;23.40;1.00;;;;;;2263964;61;2030;-84
2022/08/17 05:00:26;0.00;0.00;0.62;0.00;0.00;0.62;;;;;23.30;1.00;;;;;;2264278;61;1101;-85
2022/08/17 05:02:55;162473.00;0.54;281.30;0.00;0.00;0.62;;;;;23.50;1.00;;;;;;2263963;61;1524;-85
2022/08/17 05:05:25;322860.00;1.08;557.21;23858.00;0.08;41.95;;;;;23.80;1.00;;;;;;2263874;61;1223;-84
2022/08/17 05:07:53;219998.00;0.73;380.34;0.00;0.00;0.62;;;;;23.90;1.00;;;;;;2264345;61;1168;-84
2022/08/17 05:10:20;73753.00;0.25;128.25;0.00;0.00;0.62;;;;;24.00;1.00;;;;;;2264088;61;1179;-85
2022/08/17 05:12:47;22651.00;0.08;39.86;0.00;0.00;0.62;;;;;24.10;1.00;;;;;;2264319;61;1183;-85
2022/08/17 05:15:15;119904.00;0.40;207.92;0.00;0.00;0.62;;;;;24.10;1.00;;;;;;2264296;61;1309;-84
2022/08/17 05:17:44;408244.00;1.36;703.98;39837.00;0.13;69.61;;;;;24.30;1.00;;;;;;2264287;61;1169;-85
2022/08/17 05:20:11;89360.00;0.30;155.20;0.00;0.00;0.62;;;;;24.20;1.00;;;;;;2264287;61;1031;-85
2022/08/17 05:22:49;227770.00;0.76;393.71;30286.00;0.10;53.08;;;;;24.20;1.00;;;;;;2264392;61;1744;-86
2022/08/17 05:25:19;79260.00;0.26;137.76;0.00;0.00;0.62;;;;;24.30;1.00;;;;;;2263926;61;1327;-85
2022/08/17 05:27:47;143855.00;0.48;249.22;0.00;0.00;0.62;;;;;24.40;1.00;;;;;;2263966;61;1152;-85
2022/08/17 05:30:14;169609.00;0.57;293.59;0.00;0.00;0.62;;;;;24.40;1.00;;;;;;2263911;61;1248;-85
2022/08/17 05:32:52;177515.00;0.59;307.21;39767.00;0.13;69.49;;;;;24.40;1.00;;;;;;2264195;61;1043;-85
2022/08/17 05:35:20;428369.00;1.43;738.58;60996.00;0.20;106.20;;;;;24.50;1.00;;;;;;2263960;61;1807;-84
2022/08/17 05:37:47;139700.00;0.47;242.05;0.00;0.00;0.62;;;;;24.40;1.00;;;;;;2264088;61;1208;-84
2022/08/17 05:40:14;166442.00;0.55;288.14;0.00;0.00;0.62;;;;;24.30;1.00;;;;;;2264044;61;1932;-87
2022/08/17 05:42:42;259816.00;0.87;448.83;48998.00;0.16;85.45;;;;;24.50;1.00;;;;;;2264182;61;1145;-84
2022/08/17 05:45:10;132737.00;0.44;230.05;0.00;0.00;0.62;;;;;25.20;1.00;;;;;;2264135;61;1334;-85
2022/08/17 05:47:39;372827.00;1.24;643.10;123236.00;0.41;213.66;;;;;26.50;1.00;;;;;;2264403;61;1090;-86
2022/08/17 05:50:09;173019.00;0.58;299.47;0.00;0.00;0.62;;;;;27.90;1.00;;;;;;2264227;61;1204;-86
2022/08/17 05:52:47;199244.00;0.66;344.62;0.00;0.00;0.62;;;;;28.80;1.00;;;;;;2264248;61;1165;-86
2022/08/17 05:55:22;52729.00;0.18;91.91;0.00;0.00;0.62;;;;;30.10;1.00;;;;;;2264503;61;1442;-87
2022/08/17 05:58:04;211899.00;0.71;366.40;0.00;0.00;0.62;;;;;30.90;1.00;;;;;;2264350;61;1488;-87
2022/08/17 06:00:41;169464.00;0.56;293.34;27198.00;0.09;47.73;;;;;31.60;1.00;;;;;;2263921;61;1276;-86
2022/08/17 06:03:24;179319.00;0.60;310.32;0.00;0.00;0.62;;;;;32.10;1.00;;;;;;2264479;61;1155;-86
2022/08/17 06:06:08;0.00;0.00;0.62;0.00;0.00;0.62;;;;;32.60;1.00;;;;;;2264512;61;1408;-88
2022/08/17 06:08:48;0.00;0.00;0.62;0.00;0.00;0.62;;;;;32.80;1.00;;;;;;2264209;61;1026;-86
2022/08/17 06:11:26;233358.00;0.78;403.33;87165.00;0.29;151.41;;;;;32.30;1.00;;;;;;2264218;61;1109;-86
2022/08/17 06:14:18;0.00;0.00;0.62;0.00;0.00;0.62;;;;;31.70;1.00;;;;;;2264204;61;1154;-86
2022/08/17 06:16:49;0.00;0.00;0.62;0.00;0.00;0.62;;;;;31.80;1.00;;;;;;2264100;61;1338;-86
2022/08/17 06:19:19;40025.00;0.13;69.93;0.00;0.00;0.62;;;;;31.00;1.00;;;;;;2264274;61;1918;-86
2022/08/17 06:21:54;0.00;0.00;0.62;0.00;0.00;0.62;;;;;31.40;1.00;;;;;;2264307;61;1234;-86
2022/08/17 06:24:33;254433.00;0.85;439.57;0.00;0.00;0.62;;;;;31.10;1.00;;;;;;2264255;61;1759;-86
2022/08/17 06:27:07;219730.00;0.73;379.88;0.00;0.00;0.62;;;;;30.70;1.00;;;;;;2264267;61;1332;-87
2022/08/17 06:29:42;41983.00;0.14;73.32;0.00;0.00;0.62;;;;;29.80;1.00;;;;;;2264315;61;1085;-87
2022/08/17 06:32:11;0.00;0.00;0.62;0.00;0.00;0.62;;;;;29.80;1.00;;;;;;2264339;61;1194;-87
2022/08/17 06:34:40;243636.00;0.81;421.01;0.00;0.00;0.62;;;;;29.10;1.00;;;;;;2264255;61;1129;-87
2022/08/17 06:37:29;155280.00;0.52;268.91;0.00;0.00;0.62;;;;;29.20;1.00;;;;;;2264304;61;1392;-87
2022/08/17 06:40:15;201785.00;0.67;349.00;0.00;0.00;0.62;;;;;29.40;1.00;;;;;;2264234;61;1927;-88
2022/08/17 06:42:52;388831.00;1.30;670.61;91773.00;0.31;159.37;;;;;29.40;1.00;;;;;;2264347;61;1762;-86
2022/08/17 06:45:26;492773.00;1.64;849.38;149089.00;0.50;258.24;;;;;29.20;1.00;;;;;;2264273;61;1329;-86
2022/08/17 06:48:00;174641.00;0.58;302.26;0.00;0.00;0.62;;;;;29.50;1.00;;;;;;2264309;61;1105;-86
2022/08/17 06:50:35;113375.00;0.38;196.65;0.00;0.00;0.62;;;;;29.50;1.00;;;;;;2264366;61;1156;-88
2022/08/17 06:53:13;0.00;0.00;0.62;0.00;0.00;0.62;;;;;29.80;1.00;;;;;;2263822;61;1128;-87
2022/08/17 06:55:49;316.00;0.00;1.17;0.00;0.00;0.62;;;;;30.10;1.00;;;;;;2263910;61;1477;-86
2022/08/17 06:58:24;147655.00;0.49;255.77;0.00;0.00;0.62;;;;;30.50;1.00;;;;;;2264052;61;1928;-86
2022/08/17 07:00:57;314128.00;1.05;542.21;61958.00;0.21;107.86;;;;;31.30;1.00;;;;;;2264106;61;1018;-86
2022/08/17 07:03:34;227901.00;0.76;393.94;64080.00;0.21;111.53;;;;;31.80;1.00;;;;;;2264014;61;1592;-87
2022/08/17 07:06:06;323457.00;1.08;558.24;55086.00;0.18;95.98;;;;;32.60;1.00;;;;;;2263908;61;1600;-86
2022/08/17 07:08:48;169030.00;0.56;292.60;60316.00;0.20;105.02;;;;;33.20;1.00;;;;;;2264321;61;1001;-86
2022/08/17 07:11:18;377068.00;1.26;650.39;38160.00;0.13;66.70;;;;;33.50;1.00;;;;;;2264369;61;1792;-87
2022/08/17 07:13:57;297869.00;0.99;514.26;60785.00;0.20;105.83;;;;;33.80;1.00;;;;;;2264299;61;1594;-86
2022/08/17 07:16:28;411156.00;1.37;708.98;57907.00;0.19;100.86;;;;;34.10;1.00;;;;;;2264312;61;1377;-87
2022/08/17 07:18:59;407361.00;1.36;702.46;58533.00;0.20;101.94;;;;;34.70;1.00;;;;;;2264073;61;1927;-87
2022/08/17 07:21:39;463482.00;1.54;798.98;107827.00;0.36;187.08;;;;;34.80;1.00;;;;;;2263265;61;1148;-87
2022/08/17 07:24:36;410356.00;1.37;707.61;57577.00;0.19;100.29;;;;;34.80;1.00;;;;;;2263957;61;1484;-85
2022/08/17 07:27:13;304819.00;1.02;526.20;0.00;0.00;0.62;;;;;34.40;1.00;;;;;;2264145;61;1572;-85
2022/08/17 07:29:45;211325.00;0.70;365.42;0.00;0.00;0.62;;;;;33.50;1.00;;;;;;2264247;61;1436;-86
2022/08/17 07:32:17;136918.00;0.46;237.26;0.00;0.00;0.62;;;;;33.00;1.00;;;;;;2264145;61;1154;-84
2022/08/17 07:35:14;244707.00;0.82;422.85;0.00;0.00;0.62;;;;;32.60;1.00;;;;;;2264076;61;968;-85
2022/08/17 07:37:44;155051.00;0.52;268.51;0.00;0.00;0.62;;;;;32.30;1.00;;;;;;2264106;61;1603;-84
2022/08/17 07:40:33;112617.00;0.38;195.35;45949.00;0.15;80.18;;;;;32.30;1.00;;;;;;2264231;61;1914;-87
2022/08/17 07:43:14;302769.00;1.01;522.68;92463.00;0.31;160.56;;;;;31.90;1.00;;;;;;2263730;61;1107;-86
2022/08/17 07:48:43;33296.00;0.11;58.29;0.00;0.00;0.62;;;;;31.30;1.00;;;;;;2264425;61;674;-86
2022/08/17 07:51:29;10828.00;0.04;19.38;0.00;0.00;0.62;;;;;31.20;1.00;;;;;;2264107;61;1425;-85
2022/08/17 07:53:59;82293.00;0.27;143.00;9865.00;0.03;17.72;;;;;30.90;1.00;;;;;;2264183;61;1051;-88
2022/08/17 07:56:38;0.00;0.00;0.62;0.00;0.00;0.62;;;;;30.70;1.00;;;;;;2264086;61;1369;-86
2022/08/17 07:59:15;49200.00;0.16;85.80;0.00;0.00;0.62;;;;;31.10;1.00;;;;;;2263981;61;1936;-86
2022/08/17 08:01:47;23208.00;0.08;40.82;0.00;0.00;0.62;;;;;31.70;1.00;;;;;;2264089;61;1168;-86
2022/08/17 08:04:36;0.00;0.00;0.62;0.00;0.00;0.62;;;;;32.80;1.00;;;;;;2263851;61;1082;-85
2022/08/17 08:07:08;53151.00;0.18;92.64;0.00;0.00;0.62;;;;;33.40;1.00;;;;;;2262903;61;1422;-85
2022/08/17 08:09:39;0.00;0.00;0.62;0.00;0.00;0.62;;;;;33.40;1.00;;;;;;2263889;61;1102;-86
2022/08/17 08:15:04;225625.00;0.75;390.02;0.00;0.00;0.62;;;;;33.40;1.00;;;;;;2302155;60;1537;-85
2022/08/17 08:17:35;320107.00;1.07;552.48;83907.00;0.28;145.79;;;;;32.90;1.00;;;;;;2291678;60;1401;-85
2022/08/17 08:20:07;173681.00;0.58;300.61;0.00;0.00;0.62;;;;;33.00;1.00;;;;;;2291644;60;1642;-84
2022/08/17 08:22:46;102672.00;0.34;178.18;0.00;0.00;0.62;;;;;33.00;1.00;;;;;;2291972;60;1017;-87
2022/08/17 08:25:37;0.00;0.00;0.62;0.00;0.00;0.62;;;;;32.70;1.00;;;;;;2291895;60;1462;-87
2022/08/17 08:28:18;20404.00;0.07;35.97;0.00;0.00;0.62;;;;;32.60;1.00;;;;;;2291915;60;1125;-86
2022/08/17 08:31:02;123716.00;0.41;214.49;0.00;0.00;0.62;;;;;32.20;1.00;;;;;;2291839;60;1112;-87
2022/08/17 08:33:45;0.00;0.00;0.62;0.00;0.00;0.62;;;;;32.10;1.00;;;;;;2291887;60;1921;-87
2022/08/17 08:36:38;129647.00;0.43;224.72;30928.00;0.10;54.19;;;;;31.90;1.00;;;;;;2291492;60;1558;-86
2022/08/17 08:39:12;313809.00;1.05;541.66;118587.00;0.40;205.64;;;;;31.70;1.00;;;;;;2291862;60;1132;-87
2022/08/17 08:41:55;324290.00;1.08;559.67;52482.00;0.17;91.48;;;;;31.50;1.00;;;;;;2291939;60;1644;-87
2022/08/17 08:44:51;520539.00;1.74;897.19;86305.00;0.29;149.93;;;;;31.30;1.00;;;;;;2291888;60;1609;-85
2022/08/17 08:47:36;610758.00;2.04;1052.80;38073.00;0.13;66.55;;;;;30.80;1.00;;;;;;2291850;60;1823;-86
2022/08/17 08:50:22;300605.00;1.00;518.96;0.00;0.00;0.62;;;;;30.50;1.00;;;;;;2291955;60;1600;-85
2022/08/17 08:53:15;434778.00;1.45;749.60;0.00;0.00;0.62;;;;;30.30;1.00;;;;;;2291899;60;2008;-86
2022/08/17 08:56:04;286243.00;0.95;494.27;0.00;0.00;0.62;;;;;30.10;1.00;;;;;;2291721;60;1536;-87
2022/08/17 08:58:49;211958.00;0.71;366.50;42028.00;0.14;73.40;;;;;30.00;1.00;;;;;;2291868;60;1925;-87
2022/08/17 09:01:26;138903.00;0.46;240.68;0.00;0.00;0.62;;;;;30.10;1.00;;;;;;2291818;60;1021;-86
2022/08/17 09:04:24;187768.00;0.63;324.87;0.00;0.00;0.62;;;;;30.00;1.00;;;;;;2291753;60;1590;-86
2022/08/17 09:07:07;447632.00;1.49;771.71;60452.00;0.20;105.26;;;;;29.90;1.00;;;;;;2291724;60;1581;-87
2022/08/17 09:09:46;212599.00;0.71;367.61;16158.00;0.05;28.62;;;;;30.00;1.00;;;;;;2291707;60;1482;-85
2022/08/17 09:12:24;319622.00;1.07;551.65;128800.00;0.43;223.26;;;;;30.10;1.00;;;;;;2291746;60;1582;-85
2022/08/17 09:15:08;144066.00;0.48;249.58;0.00;0.00;0.62;;;;;30.30;1.00;;;;;;2291605;60;2018;-86
2022/08/17 09:17:42;188546.00;0.63;326.21;0.00;0.00;0.62;;;;;30.00;1.00;;;;;;2291742;60;1128;-87
2022/08/17 09:20:24;251136.00;0.84;433.90;0.00;0.00;0.62;;;;;30.20;1.00;;;;;;2291719;60;1714;-86
2022/08/17 09:23:01;200135.00;0.67;346.16;0.00;0.00;0.62;;;;;30.40;1.00;;;;;;2291774;60;1439;-87
2022/08/17 09:25:37;255605.00;0.85;441.59;0.00;0.00;0.62;;;;;30.40;1.00;;;;;;2289946;60;1421;-89
2022/08/17 09:28:07;227729.00;0.76;393.64;0.00;0.00;0.62;;;;;30.50;1.00;;;;;;2288969;60;1158;-87
2022/08/17 09:30:41;233911.00;0.78;404.28;22150.00;0.07;38.99;;;;;30.30;1.00;;;;;;2288898;60;1490;-86
2022/08/17 09:33:10;445462.00;1.48;767.98;80378.00;0.27;139.69;;;;;29.80;1.00;;;;;;2288714;60;1923;-85
2022/08/17 09:35:48;367282.00;1.22;633.57;55450.00;0.18;96.61;;;;;29.60;1.00;;;;;;2288798;60;1658;-86
2022/08/17 09:38:23;165971.00;0.55;287.33;0.00;0.00;0.62;;;;;29.30;1.00;;;;;;2289091;60;1103;-86
2022/08/17 09:41:07;387207.00;1.29;667.81;34886.00;0.12;61.04;;;;;29.30;1.00;;;;;;2289001;60;1603;-88
2022/08/17 09:43:45;227686.00;0.76;393.57;34458.00;0.11;60.30;;;;;29.40;1.00;;;;;;2288828;60;1504;-86
2022/08/17 09:46:20;320138.00;1.07;552.54;0.00;0.00;0.62;;;;;29.20;1.00;;;;;;2288918;60;1450;-87
2022/08/17 09:48:59;460959.00;1.54;794.63;99938.00;0.33;173.46;;;;;29.00;1.00;;;;;;2288996;60;797;-87
2022/08/17 09:51:33;168881.00;0.56;292.34;15575.00;0.05;27.61;;;;;29.10;1.00;;;;;;2288770;60;1427;-85
2022/08/17 09:54:01;265725.00;0.89;458.99;0.00;0.00;0.62;;;;;29.10;1.00;;;;;;2288879;60;1988;-87
2022/08/17 09:56:39;189778.00;0.63;328.33;0.00;0.00;0.62;;;;;29.20;1.00;;;;;;2288921;60;1657;-87
2022/08/17 09:59:40;190287.00;0.63;329.20;0.00;0.00;0.62;;;;;29.40;1.00;;;;;;2288712;60;1050;-86
2022/08/17 10:02:39;211470.00;0.70;365.67;53398.00;0.18;93.06;;;;;29.50;1.00;;;;;;2288843;60;1434;-85
2022/08/17 10:05:14;327370.00;1.09;564.97;63920.00;0.21;111.25;;;;;29.50;1.00;;;;;;2288630;60;2261;-85
2022/08/17 10:07:51;434766.00;1.45;749.58;122916.00;0.41;213.11;;;;;29.60;1.00;;;;;;2288853;60;1412;-87
2022/08/17 10:10:28;202207.00;0.67;349.72;45023.00;0.15;78.58;;;;;29.70;1.00;;;;;;2288867;60;1096;-87
2022/08/17 10:13:05;278718.00;0.93;481.33;60152.00;0.20;104.74;;;;;29.70;1.00;;;;;;2288600;60;1063;-86
2022/08/17 10:15:45;415523.00;1.39;716.49;63515.00;0.21;110.55;;;;;30.00;1.00;;;;;;2288676;60;1283;-87
2022/08/17 10:18:30;305637.00;1.02;527.61;62502.00;0.21;108.80;;;;;30.20;1.00;;;;;;2288794;60;1139;-87
2022/08/17 10:26:44;19514.00;0.07;34.43;0.00;0.00;0.62;;;;;30.50;1.00;;;;;;2288659;60;1464;-86
2022/08/17 10:29:18;529301.00;1.76;912.29;148029.00;0.49;256.41;;;;;30.50;1.00;;;;;;2288665;60;1466;-87
2022/08/17 10:32:02;202658.00;0.68;350.50;0.00;0.00;0.62;;;;;30.70;1.00;;;;;;2288755;60;1130;-87
2022/08/17 10:34:54;241216.00;0.80;416.84;0.00;0.00;0.62;;;;;31.00;1.00;;;;;;2288705;60;2011;-86
2022/08/17 10:37:50;217654.00;0.73;376.31;0.00;0.00;0.62;;;;;31.20;1.00;;;;;;2288360;60;1380;-85
2022/08/17 10:40:36;233861.00;0.78;404.19;0.00;0.00;0.62;;;;;31.00;1.00;;;;;;2288716;60;1393;-88
2022/08/17 10:43:23;158138.00;0.53;273.83;0.00;0.00;0.62;;;;;30.60;1.00;;;;;;2288482;60;1123;-86
2022/08/17 10:46:00;132427.00;0.44;229.51;0.00;0.00;0.62;;;;;30.30;1.00;;;;;;2288299;60;1524;-86
2022/08/17 10:48:35;111013.00;0.37;192.58;0.00;0.00;0.62;;;;;30.90;1.00;;;;;;2288595;60;1520;-86